Terminal Aerodrome Forecast
Issued by NWS Tuscon, AZ

Home | Current Version | Previous Version | Text Only | Print | Product List | Glossary On
Versions: 1 2 3 4 5 6 7 8 9 10 11 12 13 14 15 16 17
000
FTUS45 KTWC 011137
TAFTUS
TAF
KTUS 011137Z 0112/0212 14009KT P6SM FEW150 SCT200
     FM011700 VRB04KT P6SM FEW090 SCT250
     FM012000 22007KT P6SM SCT080 BKN140
     FM012200 31008KT P6SM VCTS BKN070CB BKN120
     FM020100 12014G22KT P6SM VCSH BKN070 BKN120
     FM020600 14007KT P6SM SCT140 BKN200=

USA.gov is the U.S. government's official web portal to all federal, state and local government web resources and services.